This is the latest recevied weather packets stored in our database for station/object JA7ZQY-10. If no packets are shown the sender has not sent any weather packets the latest 10 day(s).
| Time | Temp. | Humidity | Pressure | Rain* | Wind** | Luminosity | Snow |
|---|---|---|---|---|---|---|---|
| 1787900767 | 25.56° C | 61% | 1010.4 hPa | 0 mm | - | - | - |
| 1787900168 | 25° C | 62% | 1010.5 hPa | 0 mm | - | - | - |
| 1787899569 | 25.56° C | 60% | 1010.2 hPa | 0 mm | - | - | - |
| 1787898968 | 26.11° C | 61% | 1010.2 hPa | 0 mm | - | - | - |
| 1787898367 | 25.56° C | 62% | 1010.1 hPa | 0 mm | - | - | - |
| 1787897769 | 25° C | 61% | 1010.1 hPa | 0 mm | - | - | - |
| 1787897168 | 26.11° C | 60% | 1010.2 hPa | 0 mm | - | - | - |
| 1787896568 | 26.67° C | 58% | 1009.8 hPa | 0 mm | - | - | - |
| 1787895967 | 26.67° C | 57% | 1009.6 hPa | 0 mm | - | - | - |
| 1787895369 | 27.22° C | 56% | 1009.5 hPa | 0 mm | - | - | - |
| 1787894767 | 26.11° C | 60% | 1009.5 hPa | 0 mm | - | - | - |
| 1787894169 | 26.67° C | 60% | 1009.6 hPa | 0 mm | - | - | - |
| 1787893568 | 26.67° C | 57% | 1009.6 hPa | 0 mm | - | - | - |
| 1787892967 | 26.11° C | 60% | 1009.4 hPa | 0 mm | - | - | - |
| 1787892369 | 26.11° C | 60% | 1009.7 hPa | 0 mm | - | - | - |
| 1787891768 | 25.56° C | 61% | 1009.6 hPa | 0 mm | - | - | - |
| 1787891168 | 25.56° C | 64% | 1009.7 hPa | 0 mm | - | - | - |
| 1787890567 | 26.11° C | 60% | 1009.2 hPa | 0 mm | - | - | - |
| 1787889969 | 25.56° C | 61% | 1009.3 hPa | 0 mm | - | - | - |
| 1787889368 | 26.11° C | 59% | 1009.6 hPa | 0 mm | - | - | - |
| 1787888769 | 25.56° C | 60% | 1009.6 hPa | 0 mm | - | - | - |
| 1787888169 | 26.11° C | 57% | 1009.7 hPa | 0 mm | - | - | - |
| 1787887568 | 27.22° C | 53% | 1009.5 hPa | 0 mm | - | - | - |
| 1787886969 | 26.67° C | 52% | 1009.4 hPa | 0 mm | - | - | - |
| 1787886369 | 26.67° C | 55% | 1009.2 hPa | 0 mm | - | - | - |
* Rain latest hour (hover to see other rain measurements)
** Current wind speed in m/s (hover to see current wind gust speed)